Time;durP1;ratioP1;P1;durP2;ratioP2;P2;SDS_P1;SDS_P2;PMS_P1;PMS_P2;Temp;Humidity;BMP_temperature;BMP_pressure;BME280_temperature;BME280_humidity;BME280_pressure;Samples;Min_cycle;Max_cycle;Signal;HPM_P1;HPM_P2
2022/12/15 00:39:39;;;;;;;8.38;2.33;;;;;;;-1.26;100.00;98386.16;4990044;28;20046;-83
2022/12/15 00:42:05;;;;;;;5.82;2.05;;;;;;;-1.48;100.00;98393.19;4990130;28;20426;-80
2022/12/15 00:44:31;;;;;;;2.65;1.73;;;;;;;-1.22;100.00;98395.25;4989205;28;20045;-82
2022/12/15 00:46:57;;;;;;;6.18;1.60;;;;;;;-1.30;100.00;98390.75;4989609;28;20057;-81
2022/12/15 01:22:23;;;;;;;3.17;1.88;;;;;;;-1.56;100.00;98391.28;4992888;28;20108;-79
2022/12/15 01:24:49;;;;;;;9.48;2.22;;;;;;;-1.54;100.00;98404.84;4993961;28;20513;-82
2022/12/15 01:27:15;;;;;;;3.75;1.83;;;;;;;-1.28;100.00;98396.59;4992196;28;20049;-82
2022/12/15 01:29:40;;;;;;;3.47;2.10;;;;;;;-1.64;100.00;98368.78;4994141;28;20118;-80
2022/12/15 01:32:06;;;;;;;5.85;2.28;;;;;;;-1.37;100.00;98394.84;4976496;28;20080;-82
2022/12/15 01:34:31;;;;;;;5.85;1.85;;;;;;;-1.43;100.00;98380.72;4993779;28;20116;-82
2022/12/15 01:36:57;;;;;;;3.95;2.40;;;;;;;-1.64;100.00;98367.97;4992394;28;20038;-83
2022/12/15 01:39:23;;;;;;;5.43;2.42;;;;;;;-1.42;100.00;98376.41;5004300;28;20044;-82
2022/12/15 01:41:49;;;;;;;8.95;2.05;;;;;;;-1.60;100.00;98387.34;4979385;28;20025;-81
2022/12/15 01:44:21;;;;;;;16.20;3.05;;;;;;;-1.51;100.00;98389.13;4978805;28;20105;-81
2022/12/15 01:46:53;;;;;;;4.90;1.92;;;;;;;-1.40;100.00;98395.91;4995978;28;20026;-82
2022/12/15 01:49:31;;;;;;;4.78;2.20;;;;;;;-1.45;100.00;98378.31;5011890;28;20037;-81
2022/12/15 01:52:00;;;;;;;5.93;2.38;;;;;;;-1.45;99.75;98367.19;5013179;28;20080;-81
2022/12/15 01:54:41;;;;;;;4.70;1.95;;;;;;;-1.17;99.18;98385.38;5012217;28;20026;-80
2022/12/15 01:57:12;;;;;;;2.72;2.20;;;;;;;-1.28;99.20;98388.06;4995771;28;20037;-81
2022/12/15 01:59:44;;;;;;;3.88;2.13;;;;;;;-1.40;99.12;98392.53;4994884;28;20418;-81
2022/12/15 02:02:13;;;;;;;3.20;1.98;;;;;;;-1.42;98.49;98376.41;4994380;28;20394;-81
2022/12/15 02:04:40;;;;;;;9.95;2.55;;;;;;;-1.42;97.99;98392.66;4978946;28;20025;-80
2022/12/15 02:07:09;;;;;;;6.40;2.10;;;;;;;-1.54;98.13;98397.09;5012933;28;20049;-81
2022/12/15 02:09:36;;;;;;;5.95;1.92;;;;;;;-1.32;98.30;98398.66;5011642;28;20037;-82
2022/12/15 02:12:12;;;;;;;2.20;1.70;;;;;;;-1.18;98.15;98399.19;5012625;28;20443;-79
2022/12/15 02:15:11;;;;;;;3.80;1.60;;;;;;;-1.30;98.21;98396.75;4995314;28;20383;-81
2022/12/15 02:17:54;;;;;;;4.47;2.10;;;;;;;-1.58;97.95;98373.38;4994403;28;20038;-81
2022/12/15 02:20:57;;;;;;;4.32;1.90;;;;;;;-1.39;98.85;98382.09;4978307;28;20037;-81
2022/12/15 02:24:01;;;;;;;3.53;2.10;;;;;;;-1.33;98.08;98380.75;4994101;28;20117;-81
2022/12/15 02:26:55;;;;;;;4.80;1.80;;;;;;;-1.32;98.61;98367.75;4994292;28;20026;-82
2022/12/15 02:30:28;;;;;;;4.82;2.22;;;;;;;-1.42;97.82;98364.34;5026460;28;20214;-80
2022/12/15 02:33:03;;;;;;;3.50;1.65;;;;;;;-1.20;98.17;98373.56;4935685;29;20154;-79
2022/12/15 02:35:36;;;;;;;3.90;1.63;;;;;;;-1.24;97.67;98381.69;5005212;28;20050;-80
2022/12/15 02:38:02;;;;;;;2.85;1.92;;;;;;;-1.30;97.41;98370.16;4994788;28;20650;-83
2022/12/15 02:40:28;;;;;;;3.95;1.65;;;;;;;-1.17;96.60;98372.50;4994669;28;20045;-82
2022/12/15 02:42:58;;;;;;;2.65;1.50;;;;;;;-1.06;95.79;98380.06;5012431;28;20075;-82
2022/12/15 02:45:53;;;;;;;4.85;1.80;;;;;;;-1.16;96.52;98376.69;4994671;28;20046;-81
2022/12/15 02:48:52;;;;;;;5.32;1.75;;;;;;;-1.06;96.31;98374.91;5011912;28;20464;-81
2022/12/15 02:51:31;;;;;;;3.55;1.50;;;;;;;-0.84;95.67;98367.84;4993717;28;20093;-81
2022/12/15 02:54:25;;;;;;;5.20;1.60;;;;;;;-0.89;96.28;98373.41;4994082;28;20038;-82
2022/12/15 02:57:44;;;;;;;2.78;1.63;;;;;;;-0.85;95.85;98376.53;5011781;28;20494;-82
2022/12/15 03:00:11;;;;;;;3.25;1.58;;;;;;;-1.05;95.94;98379.13;4924018;29;20031;-81
2022/12/15 03:02:41;;;;;;;2.67;2.13;;;;;;;-0.88;95.98;98381.97;4942366;29;20465;-82
2022/12/15 03:05:08;;;;;;;3.75;1.58;;;;;;;-1.04;95.94;98378.16;4973810;28;20400;-80
2022/12/15 03:07:33;;;;;;;5.95;1.60;;;;;;;-0.99;95.79;98374.38;4977371;28;20083;-80
2022/12/15 03:10:03;;;;;;;7.13;1.70;;;;;;;-0.87;95.62;98381.00;4978240;28;20041;-81
2022/12/15 03:12:28;;;;;;;4.93;1.60;;;;;;;-1.13;95.24;98375.59;5011668;28;20105;-82
2022/12/15 03:14:54;;;;;;;1.30;1.20;;;;;;;-0.82;94.46;98372.88;5011614;28;20113;-82
2022/12/15 03:17:20;;;;;;;5.78;1.58;;;;;;;-1.02;94.39;98353.09;5010232;28;20113;-80
2022/12/15 03:19:45;;;;;;;2.55;1.33;;;;;;;-0.84;94.53;98370.44;4994013;28;20018;-81
2022/12/15 03:22:11;;;;;;;1.65;1.55;;;;;;;-0.87;94.41;98370.72;4993544;28;20029;-81
2022/12/15 03:24:36;;;;;;;2.53;1.35;;;;;;;-1.03;94.46;98366.13;5010557;28;20028;-81
2022/12/15 03:27:03;;;;;;;2.00;1.85;;;;;;;-1.01;94.61;98364.22;4993565;28;20029;-82
2022/12/15 03:29:29;;;;;;;5.05;1.60;;;;;;;-0.98;95.00;98363.94;5011370;28;20049;-82
2022/12/15 03:31:54;;;;;;;3.58;1.63;;;;;;;-0.82;95.55;98381.41;5011232;28;20042;-81
2022/12/15 03:34:20;;;;;;;2.90;1.60;;;;;;;-1.24;95.65;98366.25;4993970;28;20395;-82
2022/12/15 03:36:45;;;;;;;2.78;1.65;;;;;;;-0.76;95.59;98372.31;4993127;28;20099;-81
2022/12/15 03:39:11;;;;;;;5.75;2.35;;;;;;;-0.76;95.42;98364.59;4992146;28;20042;-81
2022/12/15 03:41:36;;;;;;;2.65;1.50;;;;;;;-0.88;96.28;98369.09;5011508;28;20137;-81
2022/12/15 03:44:02;;;;;;;3.58;1.60;;;;;;;-1.19;96.43;98367.47;4993663;28;20080;-81
2022/12/15 03:46:28;;;;;;;4.80;1.80;;;;;;;-0.90;97.24;98378.72;5010994;28;20502;-81
2022/12/15 03:48:54;;;;;;;2.33;1.98;;;;;;;-1.13;97.58;98362.72;5011466;28;20147;-82
2022/12/15 03:51:20;;;;;;;5.68;1.52;;;;;;;-0.76;97.81;98382.63;4993106;28;20033;-82
2022/12/15 03:53:48;;;;;;;4.45;1.55;;;;;;;-0.87;98.31;98386.16;5011220;28;20101;-81
2022/12/15 03:56:15;;;;;;;3.20;1.50;;;;;;;-1.24;99.13;98384.28;4993829;28;20052;-81
2022/12/15 03:58:41;;;;;;;2.72;1.50;;;;;;;-1.11;99.32;98377.09;4993137;28;20045;-82
2022/12/15 04:01:10;;;;;;;2.35;1.85;;;;;;;-0.70;98.71;98381.28;5010926;28;20056;-82
2022/12/15 04:03:35;;;;;;;8.15;1.70;;;;;;;-0.74;98.89;98376.41;4993969;28;20081;-82
2022/12/15 04:06:01;;;;;;;4.43;1.65;;;;;;;-0.74;98.81;98378.16;5010204;28;20067;-82
2022/12/15 04:08:28;;;;;;;2.75;1.50;;;;;;;-1.01;99.20;98366.78;5011167;28;20057;-81
2022/12/15 04:10:53;;;;;;;4.53;1.58;;;;;;;-0.76;99.62;98380.88;5010563;28;20143;-80
2022/12/15 04:13:19;;;;;;;2.08;1.33;;;;;;;-0.84;98.79;98365.28;4976977;28;20034;-81
2022/12/15 04:15:44;;;;;;;2.53;1.60;;;;;;;-0.79;99.33;98378.53;5010685;28;20037;-82
2022/12/15 04:18:10;;;;;;;3.47;1.70;;;;;;;-0.62;98.74;98382.19;5010124;28;20524;-82
2022/12/15 04:20:39;;;;;;;7.60;2.05;;;;;;;-0.73;98.94;98393.47;4991843;28;20037;-82
2022/12/15 04:23:08;;;;;;;4.03;1.70;;;;;;;-0.72;99.38;98387.38;4993261;28;20048;-81
2022/12/15 05:34:34;;;;;;;5.32;1.60;;;;;;;-0.84;99.55;98413.44;4987814;28;20423;-82
2022/12/15 05:37:01;;;;;;;2.10;1.23;;;;;;;-1.09;100.00;98413.00;4996187;28;20038;-82
2022/12/15 05:39:27;;;;;;;6.82;2.22;;;;;;;-1.26;99.64;98407.59;5013172;28;20042;-81
2022/12/15 05:41:54;;;;;;;1.80;1.50;;;;;;;-1.08;99.71;98410.31;5013558;28;20037;-82
2022/12/15 05:44:21;;;;;;;3.38;1.63;;;;;;;-0.77;98.75;98402.44;5011953;28;20030;-82
2022/12/15 05:46:47;;;;;;;3.20;1.60;;;;;;;-0.66;98.48;98411.78;5011710;28;20545;-83
2022/12/15 05:49:14;;;;;;;2.42;1.40;;;;;;;-0.69;97.80;98418.97;4995829;28;20049;-82
2022/12/15 05:51:42;;;;;;;4.25;1.40;;;;;;;-0.56;97.52;98419.50;5012940;28;20430;-81
2022/12/15 05:54:09;;;;;;;1.90;1.50;;;;;;;-0.65;97.18;98404.84;5013329;28;20108;-82
2022/12/15 05:56:35;;;;;;;1.95;1.40;;;;;;;-0.72;96.34;98410.56;4995100;28;20606;-82
2022/12/15 05:59:01;;;;;;;2.53;1.80;;;;;;;-0.62;96.45;98399.41;4995471;28;20075;-82
2022/12/15 06:01:27;;;;;;;4.07;1.40;;;;;;;-0.65;95.78;98404.84;4994084;28;20052;-81
2022/12/15 06:03:53;;;;;;;2.50;1.52;;;;;;;-0.64;94.57;98411.63;4979277;28;20483;-81
2022/12/15 06:06:20;;;;;;;2.78;1.48;;;;;;;-0.58;93.75;98418.84;4995354;28;20037;-81
2022/12/15 06:08:45;;;;;;;3.00;1.42;;;;;;;-0.39;93.46;98414.56;5012925;28;20030;-82
2022/12/15 06:11:12;;;;;;;3.33;1.67;;;;;;;-0.37;92.35;98405.75;4995404;28;20053;-81
2022/12/15 06:13:39;;;;;;;2.80;1.60;;;;;;;-0.48;93.23;98417.03;4995444;28;20368;-81
2022/12/15 06:16:18;;;;;;;3.38;1.60;;;;;;;-0.16;92.21;98405.56;5010905;28;20030;-81
2022/12/15 06:18:46;;;;;;;1.40;1.30;;;;;;;-0.30;92.32;98421.47;4995004;28;20026;-84
2022/12/15 06:21:15;;;;;;;5.05;1.55;;;;;;;-0.24;94.25;98418.34;5012966;28;20026;-82
2022/12/15 06:23:41;;;;;;;3.03;1.50;;;;;;;-0.36;93.20;98428.00;4995014;28;20551;-82
2022/12/15 06:26:11;;;;;;;5.10;1.50;;;;;;;-0.31;93.06;98423.22;5012535;28;20029;-82
2022/12/15 06:28:38;;;;;;;3.63;1.60;;;;;;;-0.20;93.90;98411.94;5012786;28;20112;-82
2022/12/15 06:31:05;;;;;;;2.78;1.40;;;;;;;-0.06;93.88;98418.44;4994446;28;20026;-81
2022/12/15 06:33:31;;;;;;;3.67;1.58;;;;;;;-0.16;94.04;98415.06;4995303;28;20034;-82
2022/12/15 06:36:02;;;;;;;3.08;1.63;;;;;;;-0.13;95.17;98422.50;4994899;28;20029;-83
2022/12/15 06:38:28;;;;;;;2.45;1.40;;;;;;;-0.26;95.37;98427.19;5026782;28;20061;-83
2022/12/15 06:40:55;;;;;;;3.30;1.60;;;;;;;-0.15;95.65;98419.25;4993876;28;20034;-82
2022/12/15 06:43:20;;;;;;;4.25;1.83;;;;;;;-0.06;96.02;98435.66;5011027;28;20026;-83
2022/12/15 06:45:50;;;;;;;5.68;1.63;;;;;;;-0.02;95.44;98434.41;4993680;28;20159;-84
2022/12/15 06:48:16;;;;;;;3.38;1.80;;;;;;;-0.18;96.77;98437.59;4993654;28;20053;-83
2022/12/15 06:50:44;;;;;;;5.32;1.63;;;;;;;-0.45;97.27;98424.50;5011503;28;20030;-83
2022/12/15 06:53:11;;;;;;;4.03;1.52;;;;;;;-0.32;97.38;98441.44;4993876;28;20021;-83
2022/12/15 06:55:40;;;;;;;5.32;1.80;;;;;;;-0.11;97.22;98445.59;4994473;28;20034;-84
2022/12/15 06:58:06;;;;;;;3.20;1.50;;;;;;;0.15;97.15;98445.78;5011330;28;20033;-83
2022/12/15 07:00:35;;;;;;;4.57;1.70;;;;;;;0.27;97.08;98443.81;5010793;28;20388;-82
2022/12/15 07:03:02;;;;;;;3.33;1.67;;;;;;;0.34;96.77;98442.28;5010989;28;20376;-81
2022/12/15 07:05:28;;;;;;;3.40;1.50;;;;;;;0.38;97.18;98448.78;5009854;28;20032;-82
2022/12/15 07:07:54;;;;;;;5.68;1.65;;;;;;;0.50;97.63;98446.03;5010439;28;20041;-83
2022/12/15 07:10:19;;;;;;;2.42;1.77;;;;;;;0.21;98.07;98437.47;5011581;28;20471;-83
2022/12/15 07:12:45;;;;;;;4.05;1.88;;;;;;;0.32;98.80;98439.03;4993581;28;20030;-84
2022/12/15 07:15:10;;;;;;;2.13;1.48;;;;;;;0.51;98.87;98457.97;4994056;28;20026;-85
2022/12/15 07:17:36;;;;;;;1.90;1.67;;;;;;;0.40;98.61;98461.56;4994256;28;20434;-83
2022/12/15 07:20:05;;;;;;;2.75;1.60;;;;;;;0.44;99.58;98451.78;5011378;28;20109;-84
2022/12/15 07:22:31;;;;;;;8.70;1.80;;;;;;;0.46;99.49;98460.19;4996460;28;20125;-87
2022/12/15 07:24:57;;;;;;;2.85;1.70;;;;;;;0.47;99.85;98449.69;4978163;28;20660;-86
2022/12/15 07:27:23;;;;;;;2.25;1.70;;;;;;;0.55;100.00;98459.31;4996843;28;20036;-86
2022/12/15 07:29:49;;;;;;;4.10;1.60;;;;;;;0.65;100.00;98464.41;4997018;28;20038;-89
2022/12/15 07:32:15;;;;;;;1.60;1.50;;;;;;;0.54;99.94;98455.94;4997323;28;20037;-86
2022/12/15 07:34:41;;;;;;;5.60;1.60;;;;;;;0.36;100.00;98471.34;4977303;28;20027;-84
2022/12/15 07:37:07;;;;;;;1.92;1.50;;;;;;;0.45;100.00;98448.22;5009820;28;20527;-83
2022/12/15 07:39:33;;;;;;;4.43;1.60;;;;;;;0.34;100.00;98462.13;4953106;28;1172666;-81
2022/12/15 07:41:59;;;;;;;8.77;1.70;;;;;;;0.55;100.00;98448.97;5011466;28;20398;-81
2022/12/15 07:44:25;;;;;;;4.20;1.35;;;;;;;0.47;100.00;98482.47;5011242;28;20092;-83
2022/12/15 07:46:51;;;;;;;2.40;1.38;;;;;;;0.45;100.00;98484.38;4993232;28;20025;-82
2022/12/15 07:49:17;;;;;;;5.05;1.58;;;;;;;0.64;100.00;98467.97;4993337;28;20037;-80
2022/12/15 07:51:43;;;;;;;16.67;5.05;;;;;;;0.39;100.00;98453.03;4977417;28;20479;-81
2022/12/15 07:54:10;;;;;;;6.47;2.00;;;;;;;0.63;100.00;98476.66;4993215;28;20037;-82
2022/12/15 07:56:39;;;;;;;7.20;2.78;;;;;;;0.48;100.00;98481.50;4993344;28;20432;-83
2022/12/15 07:59:05;;;;;;;7.47;2.10;;;;;;;0.56;100.00;98485.00;4992186;28;20037;-82
2022/12/15 08:01:31;;;;;;;5.25;2.15;;;;;;;0.77;100.00;98477.94;4993779;28;20049;-80
2022/12/15 08:03:57;;;;;;;4.25;2.15;;;;;;;0.46;100.00;98473.09;4993555;28;20062;-82
2022/12/15 08:06:23;;;;;;;3.25;1.90;;;;;;;0.75;100.00;98488.44;4993895;28;20040;-83
2022/12/15 08:08:49;;;;;;;4.65;1.90;;;;;;;0.58;100.00;98487.41;4978310;28;20034;-82
2022/12/15 08:11:16;;;;;;;6.85;1.83;;;;;;;0.56;100.00;98489.34;4994126;28;20053;-81
2022/12/15 08:13:43;;;;;;;5.53;1.70;;;;;;;0.80;100.00;98493.19;4994424;28;20030;-82
2022/12/15 08:16:11;;;;;;;4.38;3.35;;;;;;;0.79;100.00;98494.94;5011538;28;20492;-83
2022/12/15 08:18:38;;;;;;;26.00;11.55;;;;;;;0.59;100.00;98486.50;5009234;28;20079;-81
2022/12/15 08:21:06;;;;;;;19.40;8.52;;;;;;;0.67;100.00;98509.81;4978436;28;20112;-81
2022/12/15 08:23:32;;;;;;;6.78;3.60;;;;;;;0.57;100.00;98493.53;5010427;28;20041;-81
2022/12/15 08:26:07;;;;;;;8.65;3.30;;;;;;;0.71;100.00;98505.97;4977294;28;20129;-80
2022/12/15 08:28:37;;;;;;;8.27;3.95;;;;;;;0.76;100.00;98502.16;4993298;28;20057;-82
2022/12/15 08:31:05;;;;;;;17.02;5.78;;;;;;;0.55;100.00;98490.28;4977312;28;20045;-81
2022/12/15 08:33:31;;;;;;;11.38;6.28;;;;;;;0.44;100.00;98514.53;4991053;28;20120;-81
2022/12/15 08:36:01;;;;;;;5.80;2.55;;;;;;;0.41;100.00;98520.81;5010125;28;20116;-81
2022/12/15 08:38:28;;;;;;;4.65;1.80;;;;;;;0.67;100.00;98519.31;4992911;28;20499;-80
2022/12/15 08:40:55;;;;;;;3.30;1.75;;;;;;;0.56;100.00;98522.91;4993278;28;20108;-80
2022/12/15 08:43:21;;;;;;;6.63;2.95;;;;;;;0.77;100.00;98508.94;4975549;28;20615;-81
2022/12/15 08:45:47;;;;;;;4.72;2.63;;;;;;;1.04;100.00;98531.38;5010818;28;20044;-82
2022/12/15 08:48:13;;;;;;;5.72;2.83;;;;;;;1.19;100.00;98533.47;4976721;28;20117;-80
2022/12/15 08:50:44;;;;;;;3.58;2.00;;;;;;;1.27;100.00;98534.34;4993262;28;20034;-80
2022/12/15 08:53:12;;;;;;;6.93;1.77;;;;;;;1.37;100.00;98525.69;4977309;28;20034;-80
2022/12/15 08:55:38;;;;;;;6.22;1.70;;;;;;;1.43;100.00;98531.09;5010297;28;20033;-81
2022/12/15 08:58:03;;;;;;;5.38;1.52;;;;;;;1.58;100.00;98547.88;4993028;28;20087;-80
2022/12/15 09:00:29;;;;;;;4.50;2.28;;;;;;;1.50;100.00;98530.53;4992769;28;20030;-80
2022/12/15 09:02:55;;;;;;;3.30;1.65;;;;;;;1.56;100.00;98550.63;5009291;28;20038;-81
2022/12/15 09:05:20;;;;;;;3.75;1.60;;;;;;;1.63;100.00;98561.97;4976326;28;20032;-81
2022/12/15 09:07:46;;;;;;;4.88;1.58;;;;;;;1.65;100.00;98543.75;4992368;28;20061;-82
2022/12/15 09:10:11;;;;;;;3.70;1.67;;;;;;;1.72;100.00;98552.50;4976231;28;20084;-81
2022/12/15 09:12:37;;;;;;;4.55;1.83;;;;;;;1.85;100.00;98559.88;4976120;28;20072;-82
2022/12/15 09:15:03;;;;;;;4.00;1.75;;;;;;;1.83;100.00;98565.22;4992815;28;20033;-82
2022/12/15 09:17:29;;;;;;;1.50;1.30;;;;;;;1.91;100.00;98554.13;4990541;28;20037;-79
2022/12/15 09:19:55;;;;;;;6.20;2.17;;;;;;;1.91;100.00;98555.91;4976731;28;20362;-80
2022/12/15 09:22:21;;;;;;;5.63;1.85;;;;;;;2.11;100.00;98559.91;5009716;28;20034;-81
2022/12/15 09:24:47;;;;;;;5.05;1.80;;;;;;;1.64;100.00;98557.63;4992296;28;20033;-81
2022/12/15 09:27:13;;;;;;;6.15;2.15;;;;;;;1.87;100.00;98558.00;4992718;28;20364;-82
2022/12/15 09:29:39;;;;;;;4.53;2.13;;;;;;;2.06;100.00;98572.50;5023306;28;20030;-82
2022/12/15 09:32:05;;;;;;;4.65;1.63;;;;;;;2.02;100.00;98566.03;5013408;28;20103;-81
2022/12/15 09:34:31;;;;;;;3.58;1.70;;;;;;;1.90;100.00;98568.03;4979735;28;20080;-81
2022/12/15 09:36:56;;;;;;;4.65;1.90;;;;;;;2.01;100.00;98579.94;4981942;28;20402;-86
2022/12/15 09:39:22;;;;;;;6.25;1.88;;;;;;;1.96;100.00;98566.59;5016561;28;20041;-88
2022/12/15 09:41:53;;;;;;;8.95;2.13;;;;;;;2.12;100.00;98576.28;4998098;28;20117;-87
2022/12/15 09:44:21;;;;;;;4.55;1.80;;;;;;;2.04;100.00;98584.81;5016382;28;20069;-87
2022/12/15 09:47:11;;;;;;;10.95;1.90;;;;;;;2.21;100.00;98583.13;4998608;28;20030;-86
2022/12/15 09:49:56;;;;;;;3.30;1.67;;;;;;;2.14;100.00;98571.75;4999780;28;20065;-87
2022/12/15 09:52:46;;;;;;;3.65;1.88;;;;;;;2.27;100.00;98563.59;4998340;28;20045;-87
2022/12/15 09:55:24;;;;;;;5.15;2.00;;;;;;;2.26;100.00;98575.75;5014680;28;20117;-85
2022/12/15 09:57:51;;;;;;;6.80;2.67;;;;;;;2.36;100.00;98580.81;5001446;28;20044;-86
2022/12/15 10:00:23;;;;;;;8.18;3.70;;;;;;;2.40;100.00;98579.53;5001444;28;20518;-86
2022/12/15 10:03:08;;;;;;;9.05;3.72;;;;;;;2.39;100.00;98583.09;4984041;28;20037;-87
2022/12/15 10:05:52;;;;;;;10.15;2.95;;;;;;;2.48;100.00;98583.13;4983681;28;20030;-89
2022/12/15 10:08:21;;;;;;;9.07;2.67;;;;;;;2.07;100.00;98568.16;4987855;28;20053;-88
2022/12/15 10:11:25;;;;;;;8.52;3.15;;;;;;;2.30;100.00;98571.03;4989270;28;20038;-89
2022/12/15 10:13:56;;;;;;;5.28;2.33;;;;;;;2.43;100.00;98599.94;4989062;28;20030;-87
2022/12/15 10:16:37;;;;;;;14.40;2.72;;;;;;;2.35;100.00;98568.81;4988936;28;20045;-87
2022/12/15 10:19:03;;;;;;;6.45;2.10;;;;;;;2.30;100.00;98584.00;4997135;28;20061;-82
2022/12/15 10:21:30;;;;;;;6.22;2.13;;;;;;;2.36;100.00;98570.47;5013617;28;20123;-81
2022/12/15 10:24:13;;;;;;;13.15;2.20;;;;;;;2.34;100.00;98568.97;4979194;28;20507;-83
2022/12/15 10:26:41;;;;;;;8.50;2.88;;;;;;;2.50;100.00;98583.78;5012720;28;20026;-82
2022/12/15 10:29:49;;;;;;;3.35;1.90;;;;;;;2.68;100.00;98597.50;4994971;28;20034;-83
2022/12/15 10:32:28;;;;;;;2.55;1.63;;;;;;;2.69;100.00;98587.94;4969572;28;20052;-82
2022/12/15 10:34:55;;;;;;;4.40;2.20;;;;;;;2.61;100.00;98588.72;5012604;28;20045;-82
2022/12/15 10:37:20;;;;;;;5.68;2.20;;;;;;;2.50;100.00;98574.25;4977224;28;20030;-81
2022/12/15 10:39:49;;;;;;;2.55;1.70;;;;;;;2.62;100.00;98581.75;4979130;28;20046;-87
2022/12/15 10:42:20;;;;;;;2.15;1.60;;;;;;;2.71;100.00;98586.81;4995489;28;20446;-83
2022/12/15 10:44:56;;;;;;;4.65;1.60;;;;;;;2.79;100.00;98582.66;4994484;28;20125;-84
2022/12/15 10:47:30;;;;;;;6.50;1.65;;;;;;;2.79;100.00;98595.59;5014453;28;20068;-83
2022/12/15 10:50:16;;;;;;;5.40;2.00;;;;;;;2.59;100.00;98556.97;4979487;28;20518;-84
2022/12/15 10:52:42;;;;;;;7.07;1.75;;;;;;;2.83;100.00;98595.13;5013044;28;20026;-84
2022/12/15 10:55:37;;;;;;;5.70;1.85;;;;;;;2.92;100.00;98595.16;4978955;28;20056;-84
2022/12/15 10:58:14;;;;;;;10.32;2.03;;;;;;;3.09;100.00;98593.44;4991565;28;20080;-84
2022/12/15 11:00:40;;;;;;;5.82;1.75;;;;;;;2.63;100.00;98576.41;4994892;28;20029;-84
2022/12/15 11:03:24;;;;;;;6.43;1.70;;;;;;;2.91;100.00;98581.38;5011584;28;20030;-84
2022/12/15 11:05:53;;;;;;;4.18;1.73;;;;;;;2.96;100.00;98599.06;4994706;28;20452;-85
2022/12/15 11:08:21;;;;;;;3.72;1.70;;;;;;;2.86;100.00;98573.28;4994977;28;20108;-85
2022/12/15 11:13:39;;;;;;;5.50;1.85;;;;;;;3.12;100.00;98591.34;5011323;28;20135;-84
2022/12/15 11:16:18;;;;;;;7.28;2.28;;;;;;;3.17;100.00;98600.44;4994009;28;20034;-83
2022/12/15 11:19:00;;;;;;;6.45;1.80;;;;;;;3.24;100.00;98591.03;5011469;28;20057;-84
2022/12/15 11:21:31;;;;;;;11.32;2.70;;;;;;;3.32;100.00;98595.44;5010805;28;20040;-84
2022/12/15 11:23:56;;;;;;;3.53;1.80;;;;;;;3.28;100.00;98598.38;4994861;28;20056;-84
2022/12/15 11:26:44;;;;;;;4.25;1.88;;;;;;;3.25;100.00;98600.47;5012236;28;20037;-81
2022/12/15 11:29:22;;;;;;;2.35;1.60;;;;;;;3.10;100.00;98615.81;4978169;28;20033;-83
2022/12/15 11:31:49;;;;;;;2.58;1.63;;;;;;;3.18;100.00;98602.88;5010865;28;20030;-84
2022/12/15 11:34:51;;;;;;;3.85;1.60;;;;;;;3.49;100.00;98594.50;5010067;28;20057;-84
2022/12/15 11:37:37;;;;;;;5.75;1.85;;;;;;;3.66;100.00;98610.94;4897472;29;20834;-84
2022/12/15 11:40:21;;;;;;;2.90;1.90;;;;;;;3.36;100.00;98609.75;5005039;28;20052;-86
2022/12/15 11:42:53;;;;;;;4.63;1.70;;;;;;;3.42;100.00;98609.09;5012367;28;20033;-84
2022/12/15 11:45:30;;;;;;;7.13;2.10;;;;;;;3.55;100.00;98604.28;5012545;28;20038;-85
2022/12/15 11:48:02;;;;;;;2.05;1.60;;;;;;;3.56;100.00;98608.50;5010128;28;20042;-81
2022/12/15 11:50:59;;;;;;;10.68;2.17;;;;;;;3.53;100.00;98619.16;4993790;28;20044;-82
2022/12/15 11:53:46;;;;;;;7.20;1.73;;;;;;;3.65;100.00;98619.69;4994116;28;20125;-84
2022/12/15 11:56:17;;;;;;;8.00;2.35;;;;;;;3.61;100.00;98617.56;4994495;28;20040;-82
2022/12/15 11:59:08;;;;;;;5.45;2.00;;;;;;;3.59;100.00;98625.50;5011709;28;20042;-81
2022/12/15 12:01:59;;;;;;;5.90;1.88;;;;;;;3.83;100.00;98629.94;4993182;28;20030;-83
2022/12/15 12:04:29;;;;;;;5.53;2.40;;;;;;;3.74;100.00;98630.91;4976321;28;20038;-82
2022/12/15 12:06:54;;;;;;;4.75;1.67;;;;;;;3.85;100.00;98630.59;5011505;28;20479;-82
2022/12/15 12:09:36;;;;;;;8.48;2.05;;;;;;;3.80;100.00;98627.66;4976719;28;20046;-83
2022/12/15 12:12:08;;;;;;;5.20;1.63;;;;;;;3.70;100.00;98633.00;5010567;28;20535;-84
2022/12/15 12:14:46;;;;;;;5.05;2.05;;;;;;;3.79;100.00;98631.22;5010703;28;20026;-82
2022/12/15 12:17:33;;;;;;;8.50;2.08;;;;;;;3.78;100.00;98619.22;4994450;28;20391;-83
2022/12/15 12:20:04;;;;;;;6.38;2.28;;;;;;;3.58;100.00;98587.56;5011702;28;20026;-84
2022/12/15 12:22:36;;;;;;;8.75;2.40;;;;;;;3.88;100.00;98623.44;5010428;28;20092;-81
2022/12/15 12:25:16;;;;;;;7.13;3.70;;;;;;;3.74;100.00;98627.50;4994078;28;20049;-84
2022/12/15 12:27:53;;;;;;;4.40;1.85;;;;;;;3.70;100.00;98601.03;4976504;28;20042;-82
2022/12/15 12:30:25;;;;;;;9.77;2.08;;;;;;;3.74;100.00;98611.91;4993051;28;20026;-83
2022/12/15 12:33:18;;;;;;;6.32;2.00;;;;;;;3.89;100.00;98617.28;5010512;28;20029;-82
2022/12/15 12:35:59;;;;;;;4.13;1.80;;;;;;;3.82;100.00;98610.13;4978491;28;20037;-84
2022/12/15 12:38:38;;;;;;;6.45;1.70;;;;;;;3.84;100.00;98605.59;5012460;28;20125;-82
2022/12/15 12:41:13;;;;;;;6.85;2.10;;;;;;;3.96;100.00;98616.47;5011797;28;20434;-82
2022/12/15 12:43:59;;;;;;;6.20;2.28;;;;;;;4.01;100.00;98610.78;5011518;28;20033;-82
2022/12/15 12:46:34;;;;;;;10.73;2.05;;;;;;;3.91;100.00;98625.72;5010671;28;20034;-82
2022/12/15 12:49:16;;;;;;;10.43;2.35;;;;;;;3.86;100.00;98621.81;4993868;28;20053;-82
2022/12/15 12:51:51;;;;;;;7.82;2.33;;;;;;;3.85;100.00;98611.59;5010448;28;20112;-85
2022/12/15 12:54:31;;;;;;;7.22;2.38;;;;;;;3.86;100.00;98629.59;5009731;28;20092;-83
2022/12/15 12:56:58;;;;;;;5.43;2.20;;;;;;;3.79;100.00;98620.84;5010835;28;20113;-84
2022/12/15 12:59:30;;;;;;;6.40;2.33;;;;;;;3.93;100.00;98629.78;4993703;28;20125;-83
2022/12/15 13:02:17;;;;;;;4.90;2.28;;;;;;;3.78;100.00;98633.97;4993731;28;20030;-82
2022/12/15 13:04:49;;;;;;;9.13;2.47;;;;;;;3.73;100.00;98629.25;4964321;28;20052;-83
2022/12/15 13:07:37;;;;;;;6.82;2.53;;;;;;;3.96;100.00;98610.47;4998195;28;20041;-83
2022/12/15 13:10:03;;;;;;;6.60;3.63;;;;;;;3.67;100.00;98616.94;5015669;28;20041;-83
2022/12/15 13:12:34;;;;;;;6.93;3.08;;;;;;;3.90;100.00;98624.09;4998639;28;20030;-81
2022/12/15 13:15:09;;;;;;;10.10;4.47;;;;;;;3.84;100.00;98618.56;5016863;28;20033;-83
2022/12/15 13:17:42;;;;;;;16.73;6.85;;;;;;;3.88;100.00;98610.47;4998661;28;20495;-84
2022/12/15 13:20:23;;;;;;;7.82;3.88;;;;;;;3.80;100.00;98625.06;5016140;28;20042;-83
2022/12/15 13:22:50;;;;;;;4.80;2.97;;;;;;;3.80;100.00;98611.25;5016654;28;20022;-81
2022/12/15 13:25:40;;;;;;;11.35;3.15;;;;;;;3.93;100.00;98613.38;5016690;28;20038;-83
2022/12/15 13:28:25;;;;;;;6.28;2.97;;;;;;;4.00;100.00;98611.78;5015715;28;20030;-83
2022/12/15 13:31:16;;;;;;;7.63;2.83;;;;;;;4.00;100.00;98620.34;4997302;28;20034;-84
2022/12/15 13:33:47;;;;;;;6.53;2.97;;;;;;;3.98;100.00;98624.09;4995625;28;20467;-83
2022/12/15 13:36:36;;;;;;;7.25;2.97;;;;;;;4.04;100.00;98623.44;4997280;28;20479;-84
2022/12/15 13:39:11;;;;;;;5.28;2.67;;;;;;;4.14;100.00;98624.13;4980791;28;20046;-84
2022/12/15 13:42:03;;;;;;;5.45;2.85;;;;;;;3.98;100.00;98624.09;4992046;28;20069;-85
2022/12/15 13:44:30;;;;;;;4.28;2.65;;;;;;;3.86;100.00;98621.81;4992554;28;20113;-82
2022/12/15 13:47:06;;;;;;;5.82;2.90;;;;;;;3.94;100.00;98622.81;4993618;28;20031;-85
2022/12/15 13:49:54;;;;;;;6.97;2.60;;;;;;;4.00;100.00;98627.34;4992821;28;20089;-84
2022/12/15 13:52:31;;;;;;;4.93;2.50;;;;;;;3.92;100.00;98609.97;4993662;28;20037;-85
2022/12/15 13:54:59;;;;;;;10.02;2.80;;;;;;;3.88;100.00;98621.66;4994731;28;20038;-84
2022/12/15 13:57:28;;;;;;;8.25;3.50;;;;;;;3.85;100.00;98630.59;4994958;28;20038;-84
2022/12/15 14:00:05;;;;;;;10.30;3.47;;;;;;;3.89;100.00;98615.50;4992309;28;20125;-84
2022/12/15 14:02:35;;;;;;;8.80;3.33;;;;;;;3.94;100.00;98634.00;4993732;28;20038;-84
2022/12/15 14:05:16;;;;;;;13.80;3.38;;;;;;;3.90;100.00;98631.88;4991308;28;20491;-83
2022/12/15 14:07:52;;;;;;;10.00;3.50;;;;;;;3.99;100.00;98631.72;4994548;28;20499;-85
2022/12/15 14:10:26;;;;;;;7.57;3.05;;;;;;;3.99;100.00;98626.53;4992650;28;20026;-83
2022/12/15 14:12:55;;;;;;;5.20;2.78;;;;;;;3.87;100.00;98627.84;4993985;28;20072;-83
2022/12/15 14:15:27;;;;;;;4.78;2.97;;;;;;;3.87;100.00;98633.03;4993730;28;20025;-83
2022/12/15 14:17:54;;;;;;;7.00;3.25;;;;;;;3.88;100.00;98639.84;4976559;28;20121;-81